sensor_id;sensor_type;location;lat;lon;timestamp;pressure;altitude;pressure_sealevel;temperature;humidity
34931;BME280;21134;49.646;8.560;2023-05-03T00:02:13;101462.81;;;8.47;77.44
34931;BME280;21134;49.646;8.560;2023-05-03T00:04:40;101454.91;;;8.37;78.94
34931;BME280;21134;49.646;8.560;2023-05-03T00:07:11;101457.78;;;8.50;77.94
34931;BME280;21134;49.646;8.560;2023-05-03T00:09:38;101462.03;;;8.49;77.43
34931;BME280;21134;49.646;8.560;2023-05-03T00:12:05;101450.72;;;8.38;77.18
34931;BME280;21134;49.646;8.560;2023-05-03T00:14:31;101452.34;;;8.36;77.98
34931;BME280;21134;49.646;8.560;2023-05-03T00:16:58;101452.56;;;8.45;77.29
34931;BME280;21134;49.646;8.560;2023-05-03T00:19:24;101445.00;;;8.48;76.76
34931;BME280;21134;49.646;8.560;2023-05-03T00:21:54;101435.41;;;8.38;77.99
34931;BME280;21134;49.646;8.560;2023-05-03T00:24:22;101444.19;;;8.16;78.98
34931;BME280;21134;49.646;8.560;2023-05-03T00:26:48;101443.03;;;8.02;79.10
34931;BME280;21134;49.646;8.560;2023-05-03T00:29:15;101437.06;;;8.01;79.62
34931;BME280;21134;49.646;8.560;2023-05-03T00:31:43;101436.84;;;7.93;80.19
34931;BME280;21134;49.646;8.560;2023-05-03T00:34:09;101444.88;;;8.07;79.54
34931;BME280;21134;49.646;8.560;2023-05-03T00:36:36;101439.47;;;7.95;79.84
34931;BME280;21134;49.646;8.560;2023-05-03T00:39:02;101445.19;;;7.88;80.18
34931;BME280;21134;49.646;8.560;2023-05-03T00:41:30;101432.44;;;7.86;80.24
34931;BME280;21134;49.646;8.560;2023-05-03T00:43:56;101432.19;;;7.76;79.92
34931;BME280;21134;49.646;8.560;2023-05-03T00:46:23;101434.81;;;7.79;80.44
34931;BME280;21134;49.646;8.560;2023-05-03T00:48:49;101433.88;;;7.77;80.05
34931;BME280;21134;49.646;8.560;2023-05-03T00:51:18;101422.78;;;7.75;80.64
34931;BME280;21134;49.646;8.560;2023-05-03T00:53:45;101430.66;;;7.82;80.18
34931;BME280;21134;49.646;8.560;2023-05-03T00:56:13;101421.16;;;7.77;80.31
34931;BME280;21134;49.646;8.560;2023-05-03T00:58:44;101413.44;;;7.74;79.94
34931;BME280;21134;49.646;8.560;2023-05-03T01:01:11;101412.41;;;7.67;79.95
34931;BME280;21134;49.646;8.560;2023-05-03T01:03:38;101413.09;;;7.60;81.20
34931;BME280;21134;49.646;8.560;2023-05-03T01:06:08;101407.69;;;7.49;81.04
34931;BME280;21134;49.646;8.560;2023-05-03T01:08:39;101405.97;;;7.48;81.12
34931;BME280;21134;49.646;8.560;2023-05-03T01:11:15;101405.22;;;7.51;81.26
34931;BME280;21134;49.646;8.560;2023-05-03T01:13:51;101404.38;;;7.52;81.22
34931;BME280;21134;49.646;8.560;2023-05-03T01:16:25;101400.38;;;7.61;80.61
34931;BME280;21134;49.646;8.560;2023-05-03T01:18:53;101401.75;;;7.49;81.61
34931;BME280;21134;49.646;8.560;2023-05-03T01:21:22;101401.56;;;7.41;81.35
34931;BME280;21134;49.646;8.560;2023-05-03T01:23:55;101401.75;;;7.49;81.57
34931;BME280;21134;49.646;8.560;2023-05-03T01:26:25;101397.41;;;7.44;81.59
34931;BME280;21134;49.646;8.560;2023-05-03T01:28:52;101398.09;;;7.39;81.30
34931;BME280;21134;49.646;8.560;2023-05-03T01:31:22;101404.19;;;7.44;81.50
34931;BME280;21134;49.646;8.560;2023-05-03T01:34:01;101396.31;;;7.35;82.22
34931;BME280;21134;49.646;8.560;2023-05-03T01:36:30;101395.53;;;7.37;81.19
34931;BME280;21134;49.646;8.560;2023-05-03T01:39:05;101403.00;;;7.31;81.54
34931;BME280;21134;49.646;8.560;2023-05-03T01:41:34;101391.81;;;7.26;82.20
34931;BME280;21134;49.646;8.560;2023-05-03T01:44:03;101396.88;;;7.25;82.42
34931;BME280;21134;49.646;8.560;2023-05-03T01:46:30;101386.53;;;7.18;83.25
34931;BME280;21134;49.646;8.560;2023-05-03T01:48:56;101386.72;;;7.26;82.21
34931;BME280;21134;49.646;8.560;2023-05-03T01:51:23;101384.78;;;7.17;82.39
34931;BME280;21134;49.646;8.560;2023-05-03T01:53:50;101383.91;;;7.15;82.74
34931;BME280;21134;49.646;8.560;2023-05-03T01:56:16;101383.75;;;7.11;83.75
34931;BME280;21134;49.646;8.560;2023-05-03T01:58:44;101391.38;;;7.09;83.48
34931;BME280;21134;49.646;8.560;2023-05-03T02:01:10;101389.56;;;7.05;84.65
34931;BME280;21134;49.646;8.560;2023-05-03T02:03:37;101390.91;;;6.92;83.92
34931;BME280;21134;49.646;8.560;2023-05-03T02:06:03;101389.72;;;6.81;85.20
34931;BME280;21134;49.646;8.560;2023-05-03T02:08:30;101400.56;;;6.75;86.82
34931;BME280;21134;49.646;8.560;2023-05-03T02:10:56;101400.38;;;6.69;86.79
34931;BME280;21134;49.646;8.560;2023-05-03T02:13:23;101402.63;;;6.59;87.31
34931;BME280;21134;49.646;8.560;2023-05-03T02:15:51;101407.44;;;6.49;88.45
34931;BME280;21134;49.646;8.560;2023-05-03T02:18:17;101403.00;;;6.44;88.24
34931;BME280;21134;49.646;8.560;2023-05-03T02:20:44;101405.47;;;6.41;88.79
34931;BME280;21134;49.646;8.560;2023-05-03T02:23:11;101409.69;;;6.40;88.46
34931;BME280;21134;49.646;8.560;2023-05-03T02:25:38;101411.56;;;6.46;88.95
34931;BME280;21134;49.646;8.560;2023-05-03T02:28:04;101405.41;;;6.39;89.28
34931;BME280;21134;49.646;8.560;2023-05-03T02:30:31;101408.53;;;6.31;88.49
34931;BME280;21134;49.646;8.560;2023-05-03T02:32:59;101415.78;;;6.18;90.06
34931;BME280;21134;49.646;8.560;2023-05-03T02:35:25;101408.63;;;6.07;90.28
34931;BME280;21134;49.646;8.560;2023-05-03T02:37:52;101406.75;;;6.01;90.46
34931;BME280;21134;49.646;8.560;2023-05-03T02:40:18;101415.13;;;5.98;90.20
34931;BME280;21134;49.646;8.560;2023-05-03T02:42:45;101416.81;;;5.98;90.08
34931;BME280;21134;49.646;8.560;2023-05-03T02:45:12;101416.47;;;5.89;90.45
34931;BME280;21134;49.646;8.560;2023-05-03T02:47:39;101419.75;;;5.85;91.15
34931;BME280;21134;49.646;8.560;2023-05-03T02:50:07;101416.91;;;5.75;91.54
34931;BME280;21134;49.646;8.560;2023-05-03T02:52:33;101411.75;;;5.74;91.12
34931;BME280;21134;49.646;8.560;2023-05-03T02:55:00;101418.50;;;5.73;91.49
34931;BME280;21134;49.646;8.560;2023-05-03T02:57:26;101421.69;;;5.68;91.02
34931;BME280;21134;49.646;8.560;2023-05-03T02:59:53;101423.25;;;5.64;90.75
34931;BME280;21134;49.646;8.560;2023-05-03T03:02:19;101417.94;;;5.56;91.09
34931;BME280;21134;49.646;8.560;2023-05-03T03:04:46;101430.47;;;5.52;91.88
34931;BME280;21134;49.646;8.560;2023-05-03T03:07:14;101427.06;;;5.51;92.04
34931;BME280;21134;49.646;8.560;2023-05-03T03:09:40;101421.66;;;5.42;91.98
34931;BME280;21134;49.646;8.560;2023-05-03T03:12:07;101415.63;;;5.39;92.09
34931;BME280;21134;49.646;8.560;2023-05-03T03:14:33;101414.53;;;5.32;92.38
34931;BME280;21134;49.646;8.560;2023-05-03T03:17:00;101409.56;;;5.35;92.67
34931;BME280;21134;49.646;8.560;2023-05-03T03:19:27;101412.72;;;5.28;92.39
34931;BME280;21134;49.646;8.560;2023-05-03T03:21:54;101417.53;;;5.20;93.38
34931;BME280;21134;49.646;8.560;2023-05-03T03:24:21;101416.84;;;5.26;92.93
34931;BME280;21134;49.646;8.560;2023-05-03T03:26:48;101415.91;;;5.22;92.92
34931;BME280;21134;49.646;8.560;2023-05-03T03:29:14;101418.38;;;5.21;93.13
34931;BME280;21134;49.646;8.560;2023-05-03T03:31:41;101412.25;;;5.14;93.09
34931;BME280;21134;49.646;8.560;2023-05-03T03:34:07;101407.06;;;5.11;93.54
34931;BME280;21134;49.646;8.560;2023-05-03T03:36:34;101415.44;;;5.10;93.83
34931;BME280;21134;49.646;8.560;2023-05-03T03:39:02;101413.94;;;5.15;93.52
34931;BME280;21134;49.646;8.560;2023-05-03T03:41:30;101409.63;;;5.12;93.34
34931;BME280;21134;49.646;8.560;2023-05-03T03:43:57;101413.78;;;5.10;93.70
34931;BME280;21134;49.646;8.560;2023-05-03T03:46:23;101414.81;;;5.16;92.93
34931;BME280;21134;49.646;8.560;2023-05-03T03:48:51;101416.59;;;5.18;92.34
34931;BME280;21134;49.646;8.560;2023-05-03T03:51:17;101411.56;;;5.20;93.19
34931;BME280;21134;49.646;8.560;2023-05-03T03:53:44;101403.09;;;5.19;92.81
34931;BME280;21134;49.646;8.560;2023-05-03T03:56:10;101416.31;;;5.10;93.02
34931;BME280;21134;49.646;8.560;2023-05-03T03:58:38;101400.34;;;5.13;93.65
34931;BME280;21134;49.646;8.560;2023-05-03T04:01:04;101410.38;;;5.10;93.20
34931;BME280;21134;49.646;8.560;2023-05-03T04:03:31;101404.50;;;5.11;93.72
34931;BME280;21134;49.646;8.560;2023-05-03T04:05:57;101410.38;;;5.10;93.51
34931;BME280;21134;49.646;8.560;2023-05-03T04:08:24;101415.28;;;5.05;93.20
34931;BME280;21134;49.646;8.560;2023-05-03T04:10:50;101413.47;;;5.01;93.09
34931;BME280;21134;49.646;8.560;2023-05-03T04:13:17;101411.09;;;5.06;93.67
34931;BME280;21134;49.646;8.560;2023-05-03T04:15:45;101415.00;;;4.98;93.93
34931;BME280;21134;49.646;8.560;2023-05-03T04:18:11;101417.59;;;4.99;94.29
34931;BME280;21134;49.646;8.560;2023-05-03T04:20:38;101417.66;;;5.01;94.56
34931;BME280;21134;49.646;8.560;2023-05-03T04:23:04;101412.88;;;5.08;93.73
34931;BME280;21134;49.646;8.560;2023-05-03T04:25:31;101414.47;;;5.06;93.91
34931;BME280;21134;49.646;8.560;2023-05-03T04:27:57;101417.84;;;5.05;94.11
34931;BME280;21134;49.646;8.560;2023-05-03T04:30:24;101419.56;;;5.06;94.29
34931;BME280;21134;49.646;8.560;2023-05-03T04:32:51;101421.34;;;5.09;94.18
34931;BME280;21134;49.646;8.560;2023-05-03T04:35:19;101415.63;;;5.15;94.26
34931;BME280;21134;49.646;8.560;2023-05-03T04:37:46;101426.91;;;5.23;93.33
34931;BME280;21134;49.646;8.560;2023-05-03T04:40:12;101426.38;;;5.31;93.04
34931;BME280;21134;49.646;8.560;2023-05-03T04:42:41;101413.25;;;5.43;92.09
34931;BME280;21134;49.646;8.560;2023-05-03T04:45:08;101418.25;;;5.42;91.94
34931;BME280;21134;49.646;8.560;2023-05-03T04:47:35;101428.38;;;5.40;91.69
34931;BME280;21134;49.646;8.560;2023-05-03T04:50:04;101429.38;;;5.45;91.83
34931;BME280;21134;49.646;8.560;2023-05-03T04:52:32;101427.91;;;5.52;92.05
34931;BME280;21134;49.646;8.560;2023-05-03T04:54:58;101427.44;;;5.62;91.86
34931;BME280;21134;49.646;8.560;2023-05-03T04:57:25;101433.59;;;5.69;91.46
34931;BME280;21134;49.646;8.560;2023-05-03T04:59:51;101437.53;;;5.85;90.53
34931;BME280;21134;49.646;8.560;2023-05-03T05:02:19;101438.41;;;5.87;90.22
34931;BME280;21134;49.646;8.560;2023-05-03T05:04:47;101436.28;;;5.97;89.61
34931;BME280;21134;49.646;8.560;2023-05-03T05:07:14;101433.47;;;6.15;88.84
34931;BME280;21134;49.646;8.560;2023-05-03T05:09:42;101432.03;;;6.23;87.97
34931;BME280;21134;49.646;8.560;2023-05-03T05:12:08;101447.47;;;6.29;87.91
34931;BME280;21134;49.646;8.560;2023-05-03T05:14:35;101442.44;;;6.58;85.44
34931;BME280;21134;49.646;8.560;2023-05-03T05:17:01;101437.38;;;6.60;84.80
34931;BME280;21134;49.646;8.560;2023-05-03T05:19:28;101442.91;;;6.46;87.23
34931;BME280;21134;49.646;8.560;2023-05-03T05:21:54;101435.28;;;6.46;86.03
34931;BME280;21134;49.646;8.560;2023-05-03T05:24:22;101438.13;;;6.56;85.66
34931;BME280;21134;49.646;8.560;2023-05-03T05:26:48;101445.03;;;6.60;85.54
34931;BME280;21134;49.646;8.560;2023-05-03T05:29:15;101447.00;;;6.68;84.05
34931;BME280;21134;49.646;8.560;2023-05-03T05:31:41;101441.53;;;6.85;83.55
34931;BME280;21134;49.646;8.560;2023-05-03T05:34:08;101445.75;;;6.84;84.41
34931;BME280;21134;49.646;8.560;2023-05-03T05:36:34;101447.63;;;6.90;84.01
34931;BME280;21134;49.646;8.560;2023-05-03T05:39:01;101446.03;;;6.93;83.80
34931;BME280;21134;49.646;8.560;2023-05-03T05:41:29;101443.31;;;7.17;82.83
34931;BME280;21134;49.646;8.560;2023-05-03T05:43:57;101440.22;;;7.28;82.19
34931;BME280;21134;49.646;8.560;2023-05-03T05:46:23;101445.03;;;7.49;81.91
34931;BME280;21134;49.646;8.560;2023-05-03T05:48:50;101443.59;;;7.58;80.10
34931;BME280;21134;49.646;8.560;2023-05-03T05:51:16;101447.56;;;7.49;80.75
34931;BME280;21134;49.646;8.560;2023-05-03T05:53:43;101444.25;;;7.51;81.99
34931;BME280;21134;49.646;8.560;2023-05-03T05:56:09;101446.38;;;7.66;80.48
34931;BME280;21134;49.646;8.560;2023-05-03T05:58:37;101443.81;;;7.66;80.91
34931;BME280;21134;49.646;8.560;2023-05-03T06:01:04;101446.81;;;7.84;80.19
34931;BME280;21134;49.646;8.560;2023-05-03T06:03:32;101436.75;;;7.89;79.32
34931;BME280;21134;49.646;8.560;2023-05-03T06:05:58;101431.03;;;7.98;80.54
34931;BME280;21134;49.646;8.560;2023-05-03T06:08:25;101429.56;;;8.07;78.99
34931;BME280;21134;49.646;8.560;2023-05-03T06:10:51;101433.31;;;8.22;79.67
34931;BME280;21134;49.646;8.560;2023-05-03T06:13:18;101421.63;;;8.31;78.46
34931;BME280;21134;49.646;8.560;2023-05-03T06:15:46;101428.13;;;8.55;78.09
34931;BME280;21134;49.646;8.560;2023-05-03T06:18:13;101432.31;;;8.51;78.03
34931;BME280;21134;49.646;8.560;2023-05-03T06:20:39;101424.06;;;8.61;77.60
34931;BME280;21134;49.646;8.560;2023-05-03T06:23:06;101423.50;;;8.75;76.94
34931;BME280;21134;49.646;8.560;2023-05-03T06:25:33;101421.75;;;8.74;76.66
34931;BME280;21134;49.646;8.560;2023-05-03T06:28:00;101419.59;;;8.92;75.78
34931;BME280;21134;49.646;8.560;2023-05-03T06:30:26;101415.47;;;8.97;76.48
34931;BME280;21134;49.646;8.560;2023-05-03T06:32:54;101418.28;;;9.11;75.18
34931;BME280;21134;49.646;8.560;2023-05-03T06:35:21;101421.84;;;9.19;75.28
34931;BME280;21134;49.646;8.560;2023-05-03T06:37:47;101416.16;;;9.34;74.72
34931;BME280;21134;49.646;8.560;2023-05-03T06:40:14;101420.66;;;9.46;74.73
34931;BME280;21134;49.646;8.560;2023-05-03T06:42:41;101422.75;;;9.68;72.96
34931;BME280;21134;49.646;8.560;2023-05-03T06:45:08;101419.50;;;9.77;73.02
34931;BME280;21134;49.646;8.560;2023-05-03T06:47:34;101420.47;;;9.84;72.44
34931;BME280;21134;49.646;8.560;2023-05-03T06:50:03;101425.00;;;10.00;72.34
34931;BME280;21134;49.646;8.560;2023-05-03T06:52:29;101426.00;;;10.10;71.17
34931;BME280;21134;49.646;8.560;2023-05-03T06:54:56;101426.66;;;9.98;72.54
34931;BME280;21134;49.646;8.560;2023-05-03T06:57:22;101427.81;;;10.15;71.57
34931;BME280;21134;49.646;8.560;2023-05-03T06:59:49;101423.81;;;10.31;71.21
34931;BME280;21134;49.646;8.560;2023-05-03T07:02:16;101429.19;;;10.50;70.14
34931;BME280;21134;49.646;8.560;2023-05-03T07:04:43;101433.53;;;10.55;70.71
34931;BME280;21134;49.646;8.560;2023-05-03T07:07:11;101441.25;;;10.57;69.98
34931;BME280;21134;49.646;8.560;2023-05-03T07:09:37;101431.91;;;10.60;69.96
34931;BME280;21134;49.646;8.560;2023-05-03T07:12:04;101428.69;;;10.72;69.26
34931;BME280;21134;49.646;8.560;2023-05-03T07:14:30;101428.09;;;10.91;68.61
34931;BME280;21134;49.646;8.560;2023-05-03T07:16:57;101431.72;;;11.13;68.34
34931;BME280;21134;49.646;8.560;2023-05-03T07:19:23;101428.47;;;11.24;67.48
34931;BME280;21134;49.646;8.560;2023-05-03T07:21:50;101424.16;;;11.21;68.08
34931;BME280;21134;49.646;8.560;2023-05-03T07:24:18;101415.00;;;11.45;67.52
34931;BME280;21134;49.646;8.560;2023-05-03T07:26:44;101411.75;;;11.59;66.97
34931;BME280;21134;49.646;8.560;2023-05-03T07:29:11;101412.66;;;11.68;66.64
34931;BME280;21134;49.646;8.560;2023-05-03T07:31:38;101413.81;;;11.94;65.87
34931;BME280;21134;49.646;8.560;2023-05-03T07:34:04;101414.50;;;11.79;65.27
34931;BME280;21134;49.646;8.560;2023-05-03T07:36:31;101412.72;;;11.74;66.22
34931;BME280;21134;49.646;8.560;2023-05-03T07:38:58;101412.63;;;11.64;66.36
34931;BME280;21134;49.646;8.560;2023-05-03T07:41:26;101410.06;;;11.61;66.58
34931;BME280;21134;49.646;8.560;2023-05-03T07:43:52;101411.75;;;11.59;66.61
34931;BME280;21134;49.646;8.560;2023-05-03T07:46:19;101404.13;;;11.66;65.34
34931;BME280;21134;49.646;8.560;2023-05-03T07:48:45;101411.06;;;11.79;65.81
34931;BME280;21134;49.646;8.560;2023-05-03T07:51:12;101411.31;;;12.05;64.86
34931;BME280;21134;49.646;8.560;2023-05-03T07:53:38;101408.16;;;12.44;64.32
34931;BME280;21134;49.646;8.560;2023-05-03T07:56:06;101411.78;;;12.77;62.98
34931;BME280;21134;49.646;8.560;2023-05-03T07:58:33;101412.66;;;12.88;62.83
34931;BME280;21134;49.646;8.560;2023-05-03T08:01:01;101407.63;;;13.10;61.75
34931;BME280;21134;49.646;8.560;2023-05-03T08:03:27;101413.66;;;13.15;61.58
34931;BME280;21134;49.646;8.560;2023-05-03T08:05:54;101406.84;;;13.26;61.96
34931;BME280;21134;49.646;8.560;2023-05-03T08:08:20;101407.75;;;13.34;61.59
34931;BME280;21134;49.646;8.560;2023-05-03T08:10:48;101407.75;;;13.62;61.46
34931;BME280;21134;49.646;8.560;2023-05-03T08:13:14;101412.06;;;13.84;60.38
34931;BME280;21134;49.646;8.560;2023-05-03T08:15:42;101416.38;;;13.93;59.13
34931;BME280;21134;49.646;8.560;2023-05-03T08:18:10;101404.34;;;13.87;60.35
34931;BME280;21134;49.646;8.560;2023-05-03T08:20:36;101405.22;;;13.95;59.45
34931;BME280;21134;49.646;8.560;2023-05-03T08:23:03;101395.78;;;14.11;59.69
34931;BME280;21134;49.646;8.560;2023-05-03T08:25:30;101391.50;;;14.06;59.37
34931;BME280;21134;49.646;8.560;2023-05-03T08:27:56;101399.19;;;14.18;58.27
34931;BME280;21134;49.646;8.560;2023-05-03T08:30:23;101395.75;;;14.39;58.66
34931;BME280;21134;49.646;8.560;2023-05-03T08:32:51;101396.56;;;14.55;57.61
34931;BME280;21134;49.646;8.560;2023-05-03T08:35:18;101404.25;;;14.78;57.47
34931;BME280;21134;49.646;8.560;2023-05-03T08:37:45;101406.78;;;14.82;57.21
34931;BME280;21134;49.646;8.560;2023-05-03T08:40:11;101404.25;;;14.73;57.79
34931;BME280;21134;49.646;8.560;2023-05-03T08:42:40;101397.34;;;14.84;57.27
34931;BME280;21134;49.646;8.560;2023-05-03T08:45:09;101395.59;;;14.88;57.38
34931;BME280;21134;49.646;8.560;2023-05-03T08:47:37;101391.25;;;15.01;57.30
34931;BME280;21134;49.646;8.560;2023-05-03T08:50:07;101402.41;;;15.04;57.55
34931;BME280;21134;49.646;8.560;2023-05-03T08:52:34;101397.34;;;14.80;56.99
34931;BME280;21134;49.646;8.560;2023-05-03T08:55:00;101402.38;;;15.14;57.21
34931;BME280;21134;49.646;8.560;2023-05-03T08:57:28;101397.88;;;15.45;55.45
34931;BME280;21134;49.646;8.560;2023-05-03T08:59:55;101398.72;;;15.48;54.85
34931;BME280;21134;49.646;8.560;2023-05-03T09:02:25;101408.97;;;15.56;56.77
34931;BME280;21134;49.646;8.560;2023-05-03T09:04:51;101397.88;;;15.43;55.80
34931;BME280;21134;49.646;8.560;2023-05-03T09:07:19;101400.47;;;15.45;56.52
34931;BME280;21134;49.646;8.560;2023-05-03T09:09:46;101400.34;;;15.62;55.87
34931;BME280;21134;49.646;8.560;2023-05-03T09:12:32;101402.91;;;15.65;55.61
34931;BME280;21134;49.646;8.560;2023-05-03T09:14:59;101401.19;;;15.68;55.61
34931;BME280;21134;49.646;8.560;2023-05-03T09:17:27;101400.31;;;15.71;55.31
34931;BME280;21134;49.646;8.560;2023-05-03T09:19:54;101401.06;;;15.82;54.48
34931;BME280;21134;49.646;8.560;2023-05-03T09:22:26;101400.94;;;15.99;54.89
34931;BME280;21134;49.646;8.560;2023-05-03T09:24:53;101401.69;;;16.10;53.88
34931;BME280;21134;49.646;8.560;2023-05-03T09:27:20;101399.06;;;16.18;54.96
34931;BME280;21134;49.646;8.560;2023-05-03T09:29:47;101403.31;;;16.20;54.34
34931;BME280;21134;49.646;8.560;2023-05-03T09:32:15;101401.47;;;16.33;54.42
34931;BME280;21134;49.646;8.560;2023-05-03T09:34:43;101400.53;;;16.43;54.21
34931;BME280;21134;49.646;8.560;2023-05-03T09:37:10;101391.13;;;16.33;54.10
34931;BME280;21134;49.646;8.560;2023-05-03T09:39:40;101383.72;;;16.02;54.30
34931;BME280;21134;49.646;8.560;2023-05-03T09:42:10;101380.13;;;16.16;54.68
34931;BME280;21134;49.646;8.560;2023-05-03T09:44:42;101383.47;;;16.25;55.32
34931;BME280;21134;49.646;8.560;2023-05-03T09:47:10;101382.31;;;16.52;55.73
34931;BME280;21134;49.646;8.560;2023-05-03T09:49:37;101380.03;;;17.02;53.91
34931;BME280;21134;49.646;8.560;2023-05-03T09:52:04;101381.94;;;17.48;51.79
34931;BME280;21134;49.646;8.560;2023-05-03T09:54:32;101376.53;;;17.63;51.22
34931;BME280;21134;49.646;8.560;2023-05-03T09:57:01;101374.88;;;17.59;51.18
34931;BME280;21134;49.646;8.560;2023-05-03T09:59:29;101373.94;;;17.63;51.58
34931;BME280;21134;49.646;8.560;2023-05-03T10:01:57;101367.66;;;17.80;51.99
34931;BME280;21134;49.646;8.560;2023-05-03T10:04:26;101371.19;;;17.77;50.99
34931;BME280;21134;49.646;8.560;2023-05-03T10:06:57;101367.28;;;17.49;51.56
34931;BME280;21134;49.646;8.560;2023-05-03T10:09:28;101364.00;;;17.39;51.37
34931;BME280;21134;49.646;8.560;2023-05-03T10:11:59;101360.34;;;17.51;51.74
34931;BME280;21134;49.646;8.560;2023-05-03T10:14:28;101361.19;;;17.51;53.13
34931;BME280;21134;49.646;8.560;2023-05-03T10:16:59;101353.06;;;17.77;51.28
34931;BME280;21134;49.646;8.560;2023-05-03T10:19:28;101353.06;;;17.77;50.42
34931;BME280;21134;49.646;8.560;2023-05-03T10:22:01;101350.28;;;17.88;50.68
34931;BME280;21134;49.646;8.560;2023-05-03T10:24:28;101356.25;;;17.92;50.81
34931;BME280;21134;49.646;8.560;2023-05-03T10:26:55;101346.03;;;17.84;49.06
34931;BME280;21134;49.646;8.560;2023-05-03T10:29:53;101346.41;;;17.59;49.70
34931;BME280;21134;49.646;8.560;2023-05-03T10:32:31;101339.34;;;17.67;50.33
34931;BME280;21134;49.646;8.560;2023-05-03T10:34:59;101338.91;;;17.97;50.77
34931;BME280;21134;49.646;8.560;2023-05-03T10:37:26;101336.63;;;18.25;49.64
34931;BME280;21134;49.646;8.560;2023-05-03T10:39:53;101335.56;;;18.36;49.05
34931;BME280;21134;49.646;8.560;2023-05-03T10:42:21;101338.44;;;18.23;49.52
34931;BME280;21134;49.646;8.560;2023-05-03T10:44:50;101338.19;;;18.35;49.24
34931;BME280;21134;49.646;8.560;2023-05-03T10:47:20;101339.22;;;18.26;49.58
34931;BME280;21134;49.646;8.560;2023-05-03T10:50:26;101336.47;;;18.34;48.79
34931;BME280;21134;49.646;8.560;2023-05-03T10:52:52;101334.59;;;18.41;48.15
34931;BME280;21134;49.646;8.560;2023-05-03T10:55:20;101335.72;;;18.29;48.07
34931;BME280;21134;49.646;8.560;2023-05-03T10:57:54;101335.44;;;18.44;48.71
34931;BME280;21134;49.646;8.560;2023-05-03T11:00:27;101336.41;;;18.80;46.53
34931;BME280;21134;49.646;8.560;2023-05-03T11:03:29;101330.91;;;18.94;46.56
34931;BME280;21134;49.646;8.560;2023-05-03T11:05:59;101318.88;;;18.92;47.65
34931;BME280;21134;49.646;8.560;2023-05-03T11:08:27;101324.59;;;18.66;48.89
34931;BME280;21134;49.646;8.560;2023-05-03T11:10:57;101314.53;;;18.52;49.07
34931;BME280;21134;49.646;8.560;2023-05-03T11:13:24;101317.84;;;18.58;49.36
34931;BME280;21134;49.646;8.560;2023-05-03T11:15:52;101318.69;;;18.59;49.11
34931;BME280;21134;49.646;8.560;2023-05-03T11:18:20;101310.13;;;18.55;48.64
34931;BME280;21134;49.646;8.560;2023-05-03T11:20:46;101315.00;;;18.69;48.67
34931;BME280;21134;49.646;8.560;2023-05-03T11:23:13;101316.66;;;18.75;47.33
34931;BME280;21134;49.646;8.560;2023-05-03T11:25:40;101311.69;;;18.63;49.00
34931;BME280;21134;49.646;8.560;2023-05-03T11:28:06;101306.50;;;18.63;48.33
34931;BME280;21134;49.646;8.560;2023-05-03T11:30:33;101300.41;;;18.67;46.82
34931;BME280;21134;49.646;8.560;2023-05-03T11:33:01;101287.28;;;18.74;49.02
34931;BME280;21134;49.646;8.560;2023-05-03T11:35:29;101289.63;;;18.85;49.97
34931;BME280;21134;49.646;8.560;2023-05-03T11:37:56;101286.75;;;18.97;47.67
34931;BME280;21134;49.646;8.560;2023-05-03T11:40:23;101287.59;;;18.99;47.00
34931;BME280;21134;49.646;8.560;2023-05-03T11:42:51;101285.91;;;19.33;47.90
34931;BME280;21134;49.646;8.560;2023-05-03T11:45:18;101288.31;;;19.04;48.03
34931;BME280;21134;49.646;8.560;2023-05-03T11:47:45;101286.66;;;19.38;48.15
34931;BME280;21134;49.646;8.560;2023-05-03T11:50:12;101290.53;;;19.56;46.75
34931;BME280;21134;49.646;8.560;2023-05-03T11:52:40;101276.50;;;19.28;46.40
34931;BME280;21134;49.646;8.560;2023-05-03T11:55:07;101276.09;;;19.10;46.76
34931;BME280;21134;49.646;8.560;2023-05-03T11:57:35;101275.25;;;19.09;47.54
34931;BME280;21134;49.646;8.560;2023-05-03T12:00:11;101273.16;;;19.25;46.98
34931;BME280;21134;49.646;8.560;2023-05-03T12:02:42;101277.00;;;19.09;47.56
34931;BME280;21134;49.646;8.560;2023-05-03T12:05:08;101280.78;;;18.95;47.99
34931;BME280;21134;49.646;8.560;2023-05-03T12:07:35;101274.63;;;19.35;47.83
34931;BME280;21134;49.646;8.560;2023-05-03T12:10:13;101275.59;;;18.95;47.05
34931;BME280;21134;49.646;8.560;2023-05-03T12:12:50;101273.78;;;18.97;47.39
34931;BME280;21134;49.646;8.560;2023-05-03T12:15:26;101264.69;;;19.17;46.85
34931;BME280;21134;49.646;8.560;2023-05-03T12:17:55;101262.91;;;19.19;46.26
34931;BME280;21134;49.646;8.560;2023-05-03T12:20:22;101257.72;;;19.19;46.78
34931;BME280;21134;49.646;8.560;2023-05-03T12:22:50;101248.88;;;19.27;45.95
34931;BME280;21134;49.646;8.560;2023-05-03T12:25:18;101243.41;;;19.37;45.96
34931;BME280;21134;49.646;8.560;2023-05-03T12:27:45;101241.19;;;19.57;47.46
34931;BME280;21134;49.646;8.560;2023-05-03T12:30:12;101237.59;;;19.61;45.92
34931;BME280;21134;49.646;8.560;2023-05-03T12:32:40;101242.44;;;19.77;45.23
34931;BME280;21134;49.646;8.560;2023-05-03T12:35:07;101233.91;;;19.71;44.87
34931;BME280;21134;49.646;8.560;2023-05-03T12:37:34;101232.97;;;19.74;44.99
34931;BME280;21134;49.646;8.560;2023-05-03T12:40:01;101230.38;;;19.74;45.61
34931;BME280;21134;49.646;8.560;2023-05-03T12:42:29;101229.19;;;19.86;44.96
34931;BME280;21134;49.646;8.560;2023-05-03T12:44:56;101220.41;;;19.90;45.39
34931;BME280;21134;49.646;8.560;2023-05-03T12:47:23;101229.94;;;19.89;44.85
34931;BME280;21134;49.646;8.560;2023-05-03T12:49:49;101223.47;;;20.04;43.64
34931;BME280;21134;49.646;8.560;2023-05-03T12:52:16;101213.44;;;20.21;44.02
34931;BME280;21134;49.646;8.560;2023-05-03T12:54:43;101215.53;;;20.38;42.74
34931;BME280;21134;49.646;8.560;2023-05-03T12:57:10;101218.03;;;20.41;43.85
34931;BME280;21134;49.646;8.560;2023-05-03T12:59:40;101210.13;;;20.46;42.72